sensor_id;sensor_type;location;lat;lon;timestamp;P1;durP1;ratioP1;P2;durP2;ratioP2
11000;SDS011;5553;48.506;8.870;2022-07-17T00:02:12;5.80;;;4.20;;
11000;SDS011;5553;48.506;8.870;2022-07-17T00:04:40;5.00;;;4.07;;
11000;SDS011;5553;48.506;8.870;2022-07-17T00:07:08;6.53;;;3.90;;
11000;SDS011;5553;48.506;8.870;2022-07-17T00:09:37;5.73;;;3.70;;
11000;SDS011;5553;48.506;8.870;2022-07-17T00:12:08;5.40;;;3.63;;
11000;SDS011;5553;48.506;8.870;2022-07-17T00:14:36;4.27;;;3.87;;
11000;SDS011;5553;48.506;8.870;2022-07-17T00:17:04;4.90;;;3.57;;
11000;SDS011;5553;48.506;8.870;2022-07-17T00:19:33;4.63;;;3.60;;
11000;SDS011;5553;48.506;8.870;2022-07-17T00:22:01;4.03;;;3.23;;
11000;SDS011;5553;48.506;8.870;2022-07-17T00:24:29;5.23;;;4.30;;
11000;SDS011;5553;48.506;8.870;2022-07-17T00:26:57;4.17;;;3.50;;
11000;SDS011;5553;48.506;8.870;2022-07-17T00:29:29;4.70;;;4.20;;
11000;SDS011;5553;48.506;8.870;2022-07-17T00:31:57;7.93;;;4.20;;
11000;SDS011;5553;48.506;8.870;2022-07-17T00:34:25;4.53;;;4.13;;
11000;SDS011;5553;48.506;8.870;2022-07-17T00:36:53;4.83;;;4.33;;
11000;SDS011;5553;48.506;8.870;2022-07-17T00:39:22;9.23;;;4.30;;
11000;SDS011;5553;48.506;8.870;2022-07-17T00:41:50;5.07;;;4.57;;
11000;SDS011;5553;48.506;8.870;2022-07-17T00:44:18;3.80;;;3.50;;
11000;SDS011;5553;48.506;8.870;2022-07-17T00:46:49;4.70;;;3.83;;
11000;SDS011;5553;48.506;8.870;2022-07-17T00:49:17;5.93;;;4.20;;
11000;SDS011;5553;48.506;8.870;2022-07-17T00:51:46;5.00;;;4.50;;
11000;SDS011;5553;48.506;8.870;2022-07-17T00:54:14;5.23;;;4.17;;
11000;SDS011;5553;48.506;8.870;2022-07-17T00:56:46;5.90;;;4.03;;
11000;SDS011;5553;48.506;8.870;2022-07-17T00:59:16;5.40;;;4.80;;
11000;SDS011;5553;48.506;8.870;2022-07-17T01:01:49;5.40;;;3.87;;
11000;SDS011;5553;48.506;8.870;2022-07-17T01:04:17;5.00;;;4.50;;
11000;SDS011;5553;48.506;8.870;2022-07-17T01:06:45;6.70;;;5.07;;
11000;SDS011;5553;48.506;8.870;2022-07-17T01:09:13;6.57;;;4.67;;
11000;SDS011;5553;48.506;8.870;2022-07-17T01:11:42;4.57;;;4.20;;
11000;SDS011;5553;48.506;8.870;2022-07-17T01:14:10;7.47;;;4.90;;
11000;SDS011;5553;48.506;8.870;2022-07-17T01:16:39;6.57;;;4.57;;
11000;SDS011;5553;48.506;8.870;2022-07-17T01:19:10;5.73;;;5.07;;
11000;SDS011;5553;48.506;8.870;2022-07-17T01:21:43;5.37;;;4.73;;
11000;SDS011;5553;48.506;8.870;2022-07-17T01:24:12;5.37;;;4.87;;
11000;SDS011;5553;48.506;8.870;2022-07-17T01:26:41;4.70;;;4.30;;
11000;SDS011;5553;48.506;8.870;2022-07-17T01:29:10;5.50;;;5.00;;
11000;SDS011;5553;48.506;8.870;2022-07-17T01:31:40;6.63;;;5.07;;
11000;SDS011;5553;48.506;8.870;2022-07-17T01:34:09;8.30;;;5.90;;
11000;SDS011;5553;48.506;8.870;2022-07-17T01:36:42;5.53;;;4.70;;
11000;SDS011;5553;48.506;8.870;2022-07-17T01:39:10;8.03;;;5.93;;
11000;SDS011;5553;48.506;8.870;2022-07-17T01:41:38;6.90;;;5.70;;
11000;SDS011;5553;48.506;8.870;2022-07-17T01:44:07;5.97;;;5.37;;
11000;SDS011;5553;48.506;8.870;2022-07-17T01:46:36;8.23;;;5.87;;
11000;SDS011;5553;48.506;8.870;2022-07-17T01:49:04;6.40;;;5.00;;
11000;SDS011;5553;48.506;8.870;2022-07-17T01:51:32;6.30;;;5.07;;
11000;SDS011;5553;48.506;8.870;2022-07-17T01:54:03;8.50;;;5.47;;
11000;SDS011;5553;48.506;8.870;2022-07-17T01:56:31;5.50;;;4.90;;
11000;SDS011;5553;48.506;8.870;2022-07-17T01:58:59;5.80;;;4.27;;
11000;SDS011;5553;48.506;8.870;2022-07-17T02:01:28;4.90;;;4.40;;
11000;SDS011;5553;48.506;8.870;2022-07-17T02:03:56;5.37;;;4.87;;
11000;SDS011;5553;48.506;8.870;2022-07-17T02:06:24;7.23;;;5.40;;
11000;SDS011;5553;48.506;8.870;2022-07-17T02:08:53;5.10;;;4.60;;
11000;SDS011;5553;48.506;8.870;2022-07-17T02:14:00;7.00;;;4.57;;
11000;SDS011;5553;48.506;8.870;2022-07-17T02:16:28;8.73;;;4.63;;
11000;SDS011;5553;48.506;8.870;2022-07-17T02:18:57;4.60;;;4.20;;
11000;SDS011;5553;48.506;8.870;2022-07-17T02:21:25;5.20;;;4.33;;
11000;SDS011;5553;48.506;8.870;2022-07-17T02:23:53;4.63;;;4.20;;
11000;SDS011;5553;48.506;8.870;2022-07-17T02:26:21;4.67;;;4.27;;
11000;SDS011;5553;48.506;8.870;2022-07-17T02:28:50;5.90;;;5.30;;
11000;SDS011;5553;48.506;8.870;2022-07-17T02:31:22;5.50;;;5.00;;
11000;SDS011;5553;48.506;8.870;2022-07-17T02:33:50;6.40;;;4.30;;
11000;SDS011;5553;48.506;8.870;2022-07-17T02:36:19;7.30;;;5.57;;
11000;SDS011;5553;48.506;8.870;2022-07-17T02:38:47;6.50;;;5.60;;
11000;SDS011;5553;48.506;8.870;2022-07-17T02:41:15;6.80;;;5.70;;
11000;SDS011;5553;48.506;8.870;2022-07-17T02:43:44;7.37;;;6.00;;
11000;SDS011;5553;48.506;8.870;2022-07-17T02:46:12;6.47;;;5.77;;
11000;SDS011;5553;48.506;8.870;2022-07-17T02:48:43;6.60;;;6.00;;
11000;SDS011;5553;48.506;8.870;2022-07-17T02:51:12;6.90;;;5.67;;
11000;SDS011;5553;48.506;8.870;2022-07-17T02:53:40;6.10;;;5.50;;
11000;SDS011;5553;48.506;8.870;2022-07-17T02:56:08;6.10;;;4.90;;
11000;SDS011;5553;48.506;8.870;2022-07-17T02:58:36;5.83;;;5.10;;
11000;SDS011;5553;48.506;8.870;2022-07-17T03:01:05;5.73;;;5.13;;
11000;SDS011;5553;48.506;8.870;2022-07-17T03:03:34;8.33;;;5.67;;
11000;SDS011;5553;48.506;8.870;2022-07-17T03:06:04;7.30;;;5.90;;
11000;SDS011;5553;48.506;8.870;2022-07-17T03:08:33;8.10;;;6.20;;
11000;SDS011;5553;48.506;8.870;2022-07-17T03:11:01;9.87;;;6.10;;
11000;SDS011;5553;48.506;8.870;2022-07-17T03:13:29;8.50;;;6.60;;
11000;SDS011;5553;48.506;8.870;2022-07-17T03:15:58;8.17;;;6.30;;
11000;SDS011;5553;48.506;8.870;2022-07-17T03:18:26;8.30;;;6.67;;
11000;SDS011;5553;48.506;8.870;2022-07-17T03:20:54;7.80;;;7.00;;
11000;SDS011;5553;48.506;8.870;2022-07-17T03:23:25;7.50;;;5.90;;
11000;SDS011;5553;48.506;8.870;2022-07-17T03:25:53;7.13;;;6.50;;
11000;SDS011;5553;48.506;8.870;2022-07-17T03:28:22;9.17;;;6.50;;
11000;SDS011;5553;48.506;8.870;2022-07-17T03:30:50;7.93;;;5.57;;
11000;SDS011;5553;48.506;8.870;2022-07-17T03:33:18;7.73;;;6.83;;
11000;SDS011;5553;48.506;8.870;2022-07-17T03:35:46;7.90;;;6.27;;
11000;SDS011;5553;48.506;8.870;2022-07-17T03:38:15;7.13;;;6.43;;
11000;SDS011;5553;48.506;8.870;2022-07-17T03:40:45;13.13;;;6.30;;
11000;SDS011;5553;48.506;8.870;2022-07-17T03:43:14;8.47;;;6.10;;
11000;SDS011;5553;48.506;8.870;2022-07-17T03:45:42;6.90;;;5.80;;
11000;SDS011;5553;48.506;8.870;2022-07-17T03:48:10;9.27;;;6.43;;
11000;SDS011;5553;48.506;8.870;2022-07-17T03:50:39;6.43;;;5.70;;
11000;SDS011;5553;48.506;8.870;2022-07-17T03:53:07;7.17;;;6.47;;
11000;SDS011;5553;48.506;8.870;2022-07-17T03:55:35;6.77;;;6.07;;
11000;SDS011;5553;48.506;8.870;2022-07-17T03:58:06;6.47;;;5.73;;
11000;SDS011;5553;48.506;8.870;2022-07-17T04:00:35;9.27;;;6.00;;
11000;SDS011;5553;48.506;8.870;2022-07-17T04:03:03;7.47;;;5.30;;
11000;SDS011;5553;48.506;8.870;2022-07-17T04:05:31;5.57;;;5.10;;
11000;SDS011;5553;48.506;8.870;2022-07-17T04:08:00;7.13;;;5.60;;
11000;SDS011;5553;48.506;8.870;2022-07-17T04:10:28;6.83;;;5.80;;
11000;SDS011;5553;48.506;8.870;2022-07-17T04:12:56;6.40;;;5.67;;
11000;SDS011;5553;48.506;8.870;2022-07-17T04:15:27;6.80;;;5.57;;
11000;SDS011;5553;48.506;8.870;2022-07-17T04:18:08;7.70;;;6.00;;
11000;SDS011;5553;48.506;8.870;2022-07-17T04:20:36;6.83;;;5.90;;
11000;SDS011;5553;48.506;8.870;2022-07-17T04:23:04;6.47;;;5.80;;
11000;SDS011;5553;48.506;8.870;2022-07-17T04:25:33;7.00;;;6.40;;
11000;SDS011;5553;48.506;8.870;2022-07-17T04:28:01;7.20;;;6.30;;
11000;SDS011;5553;48.506;8.870;2022-07-17T04:30:32;7.50;;;5.63;;
11000;SDS011;5553;48.506;8.870;2022-07-17T04:33:00;7.73;;;6.03;;
11000;SDS011;5553;48.506;8.870;2022-07-17T04:35:29;6.63;;;5.90;;
11000;SDS011;5553;48.506;8.870;2022-07-17T04:37:58;7.23;;;6.20;;
11000;SDS011;5553;48.506;8.870;2022-07-17T04:40:26;7.83;;;5.83;;
11000;SDS011;5553;48.506;8.870;2022-07-17T04:42:55;6.07;;;4.93;;
11000;SDS011;5553;48.506;8.870;2022-07-17T04:45:23;6.63;;;5.60;;
11000;SDS011;5553;48.506;8.870;2022-07-17T04:47:54;7.57;;;6.67;;
11000;SDS011;5553;48.506;8.870;2022-07-17T04:50:22;10.67;;;6.40;;
11000;SDS011;5553;48.506;8.870;2022-07-17T04:52:51;6.70;;;6.00;;
11000;SDS011;5553;48.506;8.870;2022-07-17T04:55:19;7.03;;;5.37;;
11000;SDS011;5553;48.506;8.870;2022-07-17T04:57:48;6.20;;;5.60;;
11000;SDS011;5553;48.506;8.870;2022-07-17T05:00:16;10.23;;;6.40;;
11000;SDS011;5553;48.506;8.870;2022-07-17T05:02:45;7.03;;;6.07;;
11000;SDS011;5553;48.506;8.870;2022-07-17T05:05:16;9.73;;;6.30;;
11000;SDS011;5553;48.506;8.870;2022-07-17T05:07:44;6.30;;;5.70;;
11000;SDS011;5553;48.506;8.870;2022-07-17T05:10:13;6.67;;;6.07;;
11000;SDS011;5553;48.506;8.870;2022-07-17T05:12:41;6.57;;;5.90;;
11000;SDS011;5553;48.506;8.870;2022-07-17T05:15:10;7.57;;;6.47;;
11000;SDS011;5553;48.506;8.870;2022-07-17T05:17:38;7.60;;;6.57;;
11000;SDS011;5553;48.506;8.870;2022-07-17T05:20:07;7.53;;;6.80;;
11000;SDS011;5553;48.506;8.870;2022-07-17T05:22:38;7.83;;;6.67;;
11000;SDS011;5553;48.506;8.870;2022-07-17T05:25:07;12.03;;;6.70;;
11000;SDS011;5553;48.506;8.870;2022-07-17T05:27:36;9.70;;;6.00;;
11000;SDS011;5553;48.506;8.870;2022-07-17T05:30:05;7.03;;;6.43;;
11000;SDS011;5553;48.506;8.870;2022-07-17T05:32:34;7.57;;;5.87;;
11000;SDS011;5553;48.506;8.870;2022-07-17T05:35:02;7.37;;;6.67;;
11000;SDS011;5553;48.506;8.870;2022-07-17T05:37:31;6.43;;;5.83;;
11000;SDS011;5553;48.506;8.870;2022-07-17T05:40:02;6.83;;;6.13;;
11000;SDS011;5553;48.506;8.870;2022-07-17T05:42:31;8.73;;;6.60;;
11000;SDS011;5553;48.506;8.870;2022-07-17T05:44:59;6.43;;;5.87;;
11000;SDS011;5553;48.506;8.870;2022-07-17T05:47:27;9.90;;;6.27;;
11000;SDS011;5553;48.506;8.870;2022-07-17T05:49:56;7.50;;;6.20;;
11000;SDS011;5553;48.506;8.870;2022-07-17T05:52:24;8.60;;;5.63;;
11000;SDS011;5553;48.506;8.870;2022-07-17T05:54:53;5.27;;;4.77;;
11000;SDS011;5553;48.506;8.870;2022-07-17T05:57:23;7.87;;;5.30;;
11000;SDS011;5553;48.506;8.870;2022-07-17T05:59:52;7.00;;;5.73;;
11000;SDS011;5553;48.506;8.870;2022-07-17T06:02:20;6.27;;;5.67;;
11000;SDS011;5553;48.506;8.870;2022-07-17T06:04:48;6.43;;;5.23;;
11000;SDS011;5553;48.506;8.870;2022-07-17T06:07:16;5.87;;;5.37;;
11000;SDS011;5553;48.506;8.870;2022-07-17T06:09:45;7.27;;;5.30;;
11000;SDS011;5553;48.506;8.870;2022-07-17T06:12:13;5.20;;;4.80;;
11000;SDS011;5553;48.506;8.870;2022-07-17T06:14:44;5.33;;;4.83;;
11000;SDS011;5553;48.506;8.870;2022-07-17T06:17:12;8.63;;;4.67;;
11000;SDS011;5553;48.506;8.870;2022-07-17T06:19:40;7.47;;;5.47;;
11000;SDS011;5553;48.506;8.870;2022-07-17T06:22:08;8.43;;;5.80;;
11000;SDS011;5553;48.506;8.870;2022-07-17T06:24:37;6.40;;;4.80;;
11000;SDS011;5553;48.506;8.870;2022-07-17T06:27:05;6.73;;;4.90;;
11000;SDS011;5553;48.506;8.870;2022-07-17T06:29:33;6.77;;;4.37;;
11000;SDS011;5553;48.506;8.870;2022-07-17T06:32:04;9.90;;;5.10;;
11000;SDS011;5553;48.506;8.870;2022-07-17T06:34:33;5.10;;;4.33;;
11000;SDS011;5553;48.506;8.870;2022-07-17T06:37:01;4.33;;;4.03;;
11000;SDS011;5553;48.506;8.870;2022-07-17T06:39:30;5.10;;;4.60;;
11000;SDS011;5553;48.506;8.870;2022-07-17T06:41:58;5.03;;;4.20;;
11000;SDS011;5553;48.506;8.870;2022-07-17T06:44:27;4.73;;;4.23;;
11000;SDS011;5553;48.506;8.870;2022-07-17T06:46:55;6.60;;;5.20;;
11000;SDS011;5553;48.506;8.870;2022-07-17T06:49:26;4.73;;;4.23;;
11000;SDS011;5553;48.506;8.870;2022-07-17T06:51:54;4.97;;;4.47;;
11000;SDS011;5553;48.506;8.870;2022-07-17T06:54:23;6.40;;;4.80;;
11000;SDS011;5553;48.506;8.870;2022-07-17T06:56:51;7.03;;;5.00;;
11000;SDS011;5553;48.506;8.870;2022-07-17T06:59:21;4.83;;;4.43;;
11000;SDS011;5553;48.506;8.870;2022-07-17T07:01:49;6.20;;;4.23;;
11000;SDS011;5553;48.506;8.870;2022-07-17T07:04:17;5.10;;;4.60;;
11000;SDS011;5553;48.506;8.870;2022-07-17T07:06:48;5.80;;;5.00;;
11000;SDS011;5553;48.506;8.870;2022-07-17T07:09:16;5.97;;;5.37;;
11000;SDS011;5553;48.506;8.870;2022-07-17T07:11:45;5.37;;;4.17;;
11000;SDS011;5553;48.506;8.870;2022-07-17T07:14:13;5.43;;;4.47;;
11000;SDS011;5553;48.506;8.870;2022-07-17T07:16:41;5.13;;;4.20;;
11000;SDS011;5553;48.506;8.870;2022-07-17T07:19:09;5.57;;;5.00;;
11000;SDS011;5553;48.506;8.870;2022-07-17T07:21:38;4.47;;;4.07;;
11000;SDS011;5553;48.506;8.870;2022-07-17T07:24:09;5.47;;;4.27;;
11000;SDS011;5553;48.506;8.870;2022-07-17T07:26:37;4.70;;;3.70;;
11000;SDS011;5553;48.506;8.870;2022-07-17T07:29:06;3.70;;;3.40;;
11000;SDS011;5553;48.506;8.870;2022-07-17T07:31:34;6.60;;;4.00;;
11000;SDS011;5553;48.506;8.870;2022-07-17T07:34:02;4.47;;;4.07;;
11000;SDS011;5553;48.506;8.870;2022-07-17T07:36:30;4.60;;;4.20;;
11000;SDS011;5553;48.506;8.870;2022-07-17T07:38:59;4.03;;;3.73;;
11000;SDS011;5553;48.506;8.870;2022-07-17T07:41:29;3.60;;;3.30;;
11000;SDS011;5553;48.506;8.870;2022-07-17T07:43:58;3.90;;;3.60;;
11000;SDS011;5553;48.506;8.870;2022-07-17T07:46:26;4.30;;;3.90;;
11000;SDS011;5553;48.506;8.870;2022-07-17T07:48:55;7.97;;;3.93;;
11000;SDS011;5553;48.506;8.870;2022-07-17T07:51:23;8.23;;;4.17;;
11000;SDS011;5553;48.506;8.870;2022-07-17T07:53:51;6.23;;;4.20;;
11000;SDS011;5553;48.506;8.870;2022-07-17T07:56:20;3.53;;;3.23;;
11000;SDS011;5553;48.506;8.870;2022-07-17T07:58:51;3.60;;;3.30;;
11000;SDS011;5553;48.506;8.870;2022-07-17T08:01:19;4.30;;;4.00;;
11000;SDS011;5553;48.506;8.870;2022-07-17T08:03:47;4.00;;;3.70;;
11000;SDS011;5553;48.506;8.870;2022-07-17T08:06:15;4.60;;;4.20;;
11000;SDS011;5553;48.506;8.870;2022-07-17T08:08:44;7.03;;;3.60;;
11000;SDS011;5553;48.506;8.870;2022-07-17T08:11:12;4.73;;;4.33;;
11000;SDS011;5553;48.506;8.870;2022-07-17T08:13:41;4.90;;;4.50;;
11000;SDS011;5553;48.506;8.870;2022-07-17T08:16:12;3.40;;;3.10;;
11000;SDS011;5553;48.506;8.870;2022-07-17T08:18:40;3.40;;;3.10;;
11000;SDS011;5553;48.506;8.870;2022-07-17T08:21:08;5.50;;;4.57;;
11000;SDS011;5553;48.506;8.870;2022-07-17T08:23:36;3.93;;;3.60;;
11000;SDS011;5553;48.506;8.870;2022-07-17T08:26:05;3.30;;;3.10;;
11000;SDS011;5553;48.506;8.870;2022-07-17T08:28:33;3.90;;;3.60;;
11000;SDS011;5553;48.506;8.870;2022-07-17T08:31:01;4.00;;;3.70;;
11000;SDS011;5553;48.506;8.870;2022-07-17T08:33:32;3.60;;;3.30;;
11000;SDS011;5553;48.506;8.870;2022-07-17T08:36:00;7.40;;;3.93;;
11000;SDS011;5553;48.506;8.870;2022-07-17T08:38:29;3.47;;;3.17;;
11000;SDS011;5553;48.506;8.870;2022-07-17T08:40:57;12.50;;;4.07;;
11000;SDS011;5553;48.506;8.870;2022-07-17T08:43:26;3.83;;;3.63;;
11000;SDS011;5553;48.506;8.870;2022-07-17T08:45:54;3.60;;;3.30;;
11000;SDS011;5553;48.506;8.870;2022-07-17T08:48:24;4.00;;;3.33;;
11000;SDS011;5553;48.506;8.870;2022-07-17T08:50:58;3.87;;;3.53;;
11000;SDS011;5553;48.506;8.870;2022-07-17T08:53:27;4.00;;;3.50;;
11000;SDS011;5553;48.506;8.870;2022-07-17T08:55:55;3.80;;;3.20;;
11000;SDS011;5553;48.506;8.870;2022-07-17T08:58:24;3.50;;;3.30;;
11000;SDS011;5553;48.506;8.870;2022-07-17T09:00:52;3.80;;;3.47;;
11000;SDS011;5553;48.506;8.870;2022-07-17T09:03:20;3.90;;;3.57;;
11000;SDS011;5553;48.506;8.870;2022-07-17T09:05:49;3.90;;;3.60;;
11000;SDS011;5553;48.506;8.870;2022-07-17T09:08:21;3.80;;;3.50;;
11000;SDS011;5553;48.506;8.870;2022-07-17T09:10:52;3.30;;;3.07;;
11000;SDS011;5553;48.506;8.870;2022-07-17T09:13:21;4.87;;;3.10;;
11000;SDS011;5553;48.506;8.870;2022-07-17T09:15:52;6.20;;;3.47;;
11000;SDS011;5553;48.506;8.870;2022-07-17T09:18:21;3.53;;;3.23;;
11000;SDS011;5553;48.506;8.870;2022-07-17T09:20:50;3.70;;;3.33;;
11000;SDS011;5553;48.506;8.870;2022-07-17T09:23:23;4.10;;;3.57;;
11000;SDS011;5553;48.506;8.870;2022-07-17T09:25:53;4.70;;;4.00;;
11000;SDS011;5553;48.506;8.870;2022-07-17T09:28:23;3.70;;;3.40;;
11000;SDS011;5553;48.506;8.870;2022-07-17T09:30:52;4.03;;;3.70;;
11000;SDS011;5553;48.506;8.870;2022-07-17T09:33:22;4.43;;;3.70;;
11000;SDS011;5553;48.506;8.870;2022-07-17T09:35:52;3.40;;;3.10;;
11000;SDS011;5553;48.506;8.870;2022-07-17T09:38:28;3.93;;;3.60;;
11000;SDS011;5553;48.506;8.870;2022-07-17T09:41:02;3.20;;;3.00;;
11000;SDS011;5553;48.506;8.870;2022-07-17T09:43:41;3.70;;;3.40;;
11000;SDS011;5553;48.506;8.870;2022-07-17T09:46:13;7.33;;;3.43;;
11000;SDS011;5553;48.506;8.870;2022-07-17T09:48:45;3.70;;;3.40;;
11000;SDS011;5553;48.506;8.870;2022-07-17T09:51:19;3.17;;;2.70;;
11000;SDS011;5553;48.506;8.870;2022-07-17T09:53:52;3.60;;;3.30;;
11000;SDS011;5553;48.506;8.870;2022-07-17T09:56:22;3.60;;;3.30;;
11000;SDS011;5553;48.506;8.870;2022-07-17T09:58:52;3.27;;;2.97;;
11000;SDS011;5553;48.506;8.870;2022-07-17T10:01:22;3.97;;;3.67;;
11000;SDS011;5553;48.506;8.870;2022-07-17T10:03:51;4.27;;;3.87;;
11000;SDS011;5553;48.506;8.870;2022-07-17T10:06:20;3.40;;;3.10;;
11000;SDS011;5553;48.506;8.870;2022-07-17T10:08:49;3.20;;;2.90;;
11000;SDS011;5553;48.506;8.870;2022-07-17T10:11:21;3.53;;;2.83;;
11000;SDS011;5553;48.506;8.870;2022-07-17T10:13:51;3.50;;;2.73;;
11000;SDS011;5553;48.506;8.870;2022-07-17T10:16:24;3.10;;;2.87;;
11000;SDS011;5553;48.506;8.870;2022-07-17T10:18:53;3.33;;;3.03;;
11000;SDS011;5553;48.506;8.870;2022-07-17T10:21:23;3.30;;;3.10;;
11000;SDS011;5553;48.506;8.870;2022-07-17T10:26:39;3.87;;;3.07;;
11000;SDS011;5553;48.506;8.870;2022-07-17T10:29:09;3.43;;;3.23;;
11000;SDS011;5553;48.506;8.870;2022-07-17T10:31:54;2.80;;;2.70;;
11000;SDS011;5553;48.506;8.870;2022-07-17T10:34:35;3.20;;;3.00;;
11000;SDS011;5553;48.506;8.870;2022-07-17T10:37:16;3.30;;;2.40;;
11000;SDS011;5553;48.506;8.870;2022-07-17T10:39:56;2.83;;;2.63;;
11000;SDS011;5553;48.506;8.870;2022-07-17T10:45:30;3.73;;;3.43;;
11000;SDS011;5553;48.506;8.870;2022-07-17T10:48:04;3.10;;;2.90;;
11000;SDS011;5553;48.506;8.870;2022-07-17T10:50:34;3.30;;;3.10;;
11000;SDS011;5553;48.506;8.870;2022-07-17T10:53:06;3.13;;;2.93;;
11000;SDS011;5553;48.506;8.870;2022-07-17T10:55:40;2.83;;;2.63;;
11000;SDS011;5553;48.506;8.870;2022-07-17T10:58:13;3.17;;;2.80;;
11000;SDS011;5553;48.506;8.870;2022-07-17T11:00:43;3.30;;;3.10;;
11000;SDS011;5553;48.506;8.870;2022-07-17T11:03:22;3.20;;;3.00;;
11000;SDS011;5553;48.506;8.870;2022-07-17T11:05:51;2.90;;;2.70;;
11000;SDS011;5553;48.506;8.870;2022-07-17T11:08:19;2.90;;;2.60;;
11000;SDS011;5553;48.506;8.870;2022-07-17T11:10:51;2.90;;;2.70;;
11000;SDS011;5553;48.506;8.870;2022-07-17T11:13:19;2.73;;;2.53;;
11000;SDS011;5553;48.506;8.870;2022-07-17T11:15:48;2.90;;;2.50;;
11000;SDS011;5553;48.506;8.870;2022-07-17T11:18:17;3.50;;;3.30;;
11000;SDS011;5553;48.506;8.870;2022-07-17T11:20:48;2.70;;;2.50;;
11000;SDS011;5553;48.506;8.870;2022-07-17T11:23:20;2.93;;;2.67;;
11000;SDS011;5553;48.506;8.870;2022-07-17T11:25:54;2.83;;;2.63;;
11000;SDS011;5553;48.506;8.870;2022-07-17T11:28:30;3.20;;;2.90;;
11000;SDS011;5553;48.506;8.870;2022-07-17T11:31:00;2.83;;;2.63;;
11000;SDS011;5553;48.506;8.870;2022-07-17T11:33:30;2.87;;;2.67;;
11000;SDS011;5553;48.506;8.870;2022-07-17T11:35:58;3.00;;;2.80;;
11000;SDS011;5553;48.506;8.870;2022-07-17T11:38:27;3.23;;;3.00;;
11000;SDS011;5553;48.506;8.870;2022-07-17T11:40:59;2.57;;;2.37;;
11000;SDS011;5553;48.506;8.870;2022-07-17T11:43:27;3.20;;;3.00;;
11000;SDS011;5553;48.506;8.870;2022-07-17T11:45:55;3.30;;;3.00;;
11000;SDS011;5553;48.506;8.870;2022-07-17T11:48:24;2.97;;;2.77;;
11000;SDS011;5553;48.506;8.870;2022-07-17T11:50:53;4.70;;;2.97;;
11000;SDS011;5553;48.506;8.870;2022-07-17T11:53:32;4.00;;;2.70;;
11000;SDS011;5553;48.506;8.870;2022-07-17T11:56:04;6.23;;;2.90;;
11000;SDS011;5553;48.506;8.870;2022-07-17T11:58:41;2.90;;;2.40;;
11000;SDS011;5553;48.506;8.870;2022-07-17T12:01:10;2.80;;;2.70;;
11000;SDS011;5553;48.506;8.870;2022-07-17T12:03:39;2.80;;;2.60;;
11000;SDS011;5553;48.506;8.870;2022-07-17T12:06:07;3.00;;;2.80;;
11000;SDS011;5553;48.506;8.870;2022-07-17T12:08:36;3.10;;;2.90;;
11000;SDS011;5553;48.506;8.870;2022-07-17T12:11:08;2.70;;;2.50;;
11000;SDS011;5553;48.506;8.870;2022-07-17T12:13:38;2.90;;;2.70;;
11000;SDS011;5553;48.506;8.870;2022-07-17T12:16:21;2.30;;;2.20;;
11000;SDS011;5553;48.506;8.870;2022-07-17T12:19:00;2.90;;;2.70;;
11000;SDS011;5553;48.506;8.870;2022-07-17T12:21:33;2.63;;;2.53;;
11000;SDS011;5553;48.506;8.870;2022-07-17T12:24:18;3.33;;;2.80;;
11000;SDS011;5553;48.506;8.870;2022-07-17T12:26:50;10.00;;;2.93;;
11000;SDS011;5553;48.506;8.870;2022-07-17T12:29:18;2.77;;;2.60;;
11000;SDS011;5553;48.506;8.870;2022-07-17T12:31:46;3.20;;;2.10;;
11000;SDS011;5553;48.506;8.870;2022-07-17T12:34:15;3.03;;;2.80;;
11000;SDS011;5553;48.506;8.870;2022-07-17T12:36:43;3.30;;;3.10;;
11000;SDS011;5553;48.506;8.870;2022-07-17T12:39:12;3.03;;;2.83;;
11000;SDS011;5553;48.506;8.870;2022-07-17T12:41:40;2.73;;;2.53;;
11000;SDS011;5553;48.506;8.870;2022-07-17T12:44:11;4.43;;;2.87;;
11000;SDS011;5553;48.506;8.870;2022-07-17T12:46:39;2.47;;;2.30;;
11000;SDS011;5553;48.506;8.870;2022-07-17T12:49:07;2.70;;;2.50;;
11000;SDS011;5553;48.506;8.870;2022-07-17T12:51:36;2.90;;;2.70;;
11000;SDS011;5553;48.506;8.870;2022-07-17T12:54:04;2.70;;;2.50;;
11000;SDS011;5553;48.506;8.870;2022-07-17T12:56:32;2.30;;;2.20;;
11000;SDS011;5553;48.506;8.870;2022-07-17T12:59:00;4.60;;;2.90;;
11000;SDS011;5553;48.506;8.870;2022-07-17T13:01:31;2.70;;;2.50;;
11000;SDS011;5553;48.506;8.870;2022-07-17T13:04:00;2.70;;;2.50;;
11000;SDS011;5553;48.506;8.870;2022-07-17T13:06:28;3.03;;;2.70;;
11000;SDS011;5553;48.506;8.870;2022-07-17T13:08:57;2.80;;;2.60;;
11000;SDS011;5553;48.506;8.870;2022-07-17T13:11:26;2.53;;;2.43;;
11000;SDS011;5553;48.506;8.870;2022-07-17T13:13:54;2.87;;;2.67;;
11000;SDS011;5553;48.506;8.870;2022-07-17T13:16:24;2.70;;;2.50;;
11000;SDS011;5553;48.506;8.870;2022-07-17T13:18:55;2.60;;;2.40;;
11000;SDS011;5553;48.506;8.870;2022-07-17T13:21:24;2.40;;;2.30;;
11000;SDS011;5553;48.506;8.870;2022-07-17T13:23:52;3.80;;;2.40;;
11000;SDS011;5553;48.506;8.870;2022-07-17T13:26:20;3.40;;;2.67;;
11000;SDS011;5553;48.506;8.870;2022-07-17T13:28:48;3.17;;;2.73;;
11000;SDS011;5553;48.506;8.870;2022-07-17T13:31:17;3.03;;;2.83;;
11000;SDS011;5553;48.506;8.870;2022-07-17T13:33:45;2.93;;;2.73;;
11000;SDS011;5553;48.506;8.870;2022-07-17T13:36:16;2.87;;;2.70;;
11000;SDS011;5553;48.506;8.870;2022-07-17T13:38:44;5.30;;;2.63;;
11000;SDS011;5553;48.506;8.870;2022-07-17T13:41:12;2.90;;;2.80;;
11000;SDS011;5553;48.506;8.870;2022-07-17T13:43:41;2.80;;;2.60;;
11000;SDS011;5553;48.506;8.870;2022-07-17T13:46:09;4.40;;;2.40;;
11000;SDS011;5553;48.506;8.870;2022-07-17T13:48:38;3.17;;;2.97;;
11000;SDS011;5553;48.506;8.870;2022-07-17T13:51:06;2.80;;;2.70;;
11000;SDS011;5553;48.506;8.870;2022-07-17T13:53:37;2.50;;;2.40;;
11000;SDS011;5553;48.506;8.870;2022-07-17T13:56:05;2.90;;;2.70;;
11000;SDS011;5553;48.506;8.870;2022-07-17T13:58:34;4.97;;;2.90;;
11000;SDS011;5553;48.506;8.870;2022-07-17T14:01:03;4.30;;;3.07;;
11000;SDS011;5553;48.506;8.870;2022-07-17T14:03:31;3.67;;;3.37;;
11000;SDS011;5553;48.506;8.870;2022-07-17T14:05:59;2.63;;;2.50;;
11000;SDS011;5553;48.506;8.870;2022-07-17T14:08:28;2.57;;;2.47;;
11000;SDS011;5553;48.506;8.870;2022-07-17T14:10:59;3.30;;;3.10;;
11000;SDS011;5553;48.506;8.870;2022-07-17T14:13:27;3.07;;;2.87;;
11000;SDS011;5553;48.506;8.870;2022-07-17T14:15:56;3.13;;;2.83;;
11000;SDS011;5553;48.506;8.870;2022-07-17T14:18:25;3.47;;;3.17;;
11000;SDS011;5553;48.506;8.870;2022-07-17T14:20:53;3.10;;;2.90;;
11000;SDS011;5553;48.506;8.870;2022-07-17T14:23:21;3.10;;;2.90;;
11000;SDS011;5553;48.506;8.870;2022-07-17T14:25:50;2.57;;;2.47;;
11000;SDS011;5553;48.506;8.870;2022-07-17T14:28:21;3.10;;;2.87;;
11000;SDS011;5553;48.506;8.870;2022-07-17T14:30:51;3.47;;;3.10;;
11000;SDS011;5553;48.506;8.870;2022-07-17T14:33:23;2.73;;;2.53;;
11000;SDS011;5553;48.506;8.870;2022-07-17T14:35:52;3.60;;;3.30;;
11000;SDS011;5553;48.506;8.870;2022-07-17T14:38:21;2.83;;;2.70;;
11000;SDS011;5553;48.506;8.870;2022-07-17T14:40:49;2.90;;;2.70;;
11000;SDS011;5553;48.506;8.870;2022-07-17T14:43:17;3.63;;;3.33;;
11000;SDS011;5553;48.506;8.870;2022-07-17T14:48:47;2.83;;;2.73;;
11000;SDS011;5553;48.506;8.870;2022-07-17T14:51:15;2.83;;;2.60;;
11000;SDS011;5553;48.506;8.870;2022-07-17T14:53:43;3.13;;;2.93;;
11000;SDS011;5553;48.506;8.870;2022-07-17T14:56:12;5.93;;;2.40;;
11000;SDS011;5553;48.506;8.870;2022-07-17T14:58:43;3.50;;;2.47;;
11000;SDS011;5553;48.506;8.870;2022-07-17T15:01:11;3.03;;;2.83;;
11000;SDS011;5553;48.506;8.870;2022-07-17T15:03:39;2.97;;;2.73;;
11000;SDS011;5553;48.506;8.870;2022-07-17T15:06:07;3.07;;;2.87;;
11000;SDS011;5553;48.506;8.870;2022-07-17T15:08:37;3.10;;;2.80;;
11000;SDS011;5553;48.506;8.870;2022-07-17T15:11:06;3.00;;;2.80;;
11000;SDS011;5553;48.506;8.870;2022-07-17T15:13:34;2.90;;;2.70;;
11000;SDS011;5553;48.506;8.870;2022-07-17T15:16:06;3.77;;;2.20;;
11000;SDS011;5553;48.506;8.870;2022-07-17T15:18:34;3.33;;;2.73;;
11000;SDS011;5553;48.506;8.870;2022-07-17T15:21:03;2.90;;;2.70;;
11000;SDS011;5553;48.506;8.870;2022-07-17T15:23:31;3.03;;;2.83;;
11000;SDS011;5553;48.506;8.870;2022-07-17T15:26:01;3.50;;;3.20;;